Kingstown, North Carolina
Current Conditions -  °F | °C
As of 2:15 PM on Friday 28 Nov 2014 (Local Time) from KEHO Reporting Station
Clear Clear  
Wind Chill: 40°   Ceiling: Unl
Heat Index: 43°   Visibility: 10mi
Dew Point: 19°   Wind: 5mph
Humidity: 38%   Direction: 250°WSW
Pressure: 30.29"   Gusts: NA
Location:  35.3693°N, 81.5992°W
Report Text: KEHO 281915Z AUTO 25004KT 10SM CLR 06/M07 A3029 RMK AO2 T00601075
Loading
Personal Weather Stations






























Interactive Weather Map New forecast layout! Learn more

10-Day Weather Forecast

Advertisements
Track Severe Weather on mobile